sensor_id;sensor_type;location;lat;lon;timestamp;pressure;altitude;pressure_sealevel;temperature;humidity
26839;BME280;40088;51.214;6.786;2023-08-21T00:08:55;101940.50;;;21.13;74.68
26839;BME280;40088;51.214;6.786;2023-08-21T00:18:55;101940.50;;;21.13;74.75
26839;BME280;40088;51.214;6.786;2023-08-21T00:28:56;101928.56;;;21.12;74.52
26839;BME280;40088;51.214;6.786;2023-08-21T00:38:56;101923.00;;;21.12;74.55
26839;BME280;40088;51.214;6.786;2023-08-21T00:48:57;101916.63;;;21.12;74.39
26839;BME280;40088;51.214;6.786;2023-08-21T00:58:58;101926.84;;;21.11;74.64
26839;BME280;40088;51.214;6.786;2023-08-21T01:09:29;101930.47;;;21.12;74.41
26839;BME280;40088;51.214;6.786;2023-08-21T01:19:36;101925.78;;;21.12;74.50
26839;BME280;40088;51.214;6.786;2023-08-21T01:29:37;101942.41;;;21.12;74.49
26839;BME280;40088;51.214;6.786;2023-08-21T01:39:38;101942.41;;;21.12;74.21
26839;BME280;40088;51.214;6.786;2023-08-21T01:49:38;101941.56;;;21.12;74.25
26839;BME280;40088;51.214;6.786;2023-08-21T01:59:38;101931.31;;;21.12;74.09
26839;BME280;40088;51.214;6.786;2023-08-21T02:09:38;101931.31;;;21.12;74.37
26839;BME280;40088;51.214;6.786;2023-08-21T02:19:39;101916.41;;;21.13;74.12
26839;BME280;40088;51.214;6.786;2023-08-21T02:29:39;101934.09;;;21.12;74.16
26839;BME280;40088;51.214;6.786;2023-08-21T02:39:39;101927.50;;;21.13;73.71
26839;BME280;40088;51.214;6.786;2023-08-21T02:49:40;101911.94;;;21.12;74.01
26839;BME280;40088;51.214;6.786;2023-08-21T02:59:40;101918.31;;;21.13;73.95
26839;BME280;40088;51.214;6.786;2023-08-21T03:09:40;101920.25;;;21.12;73.83
26839;BME280;40088;51.214;6.786;2023-08-21T03:19:41;101905.53;;;21.12;73.76
26839;BME280;40088;51.214;6.786;2023-08-21T03:29:41;101910.00;;;21.13;73.56
26839;BME280;40088;51.214;6.786;2023-08-21T03:39:48;101911.94;;;21.12;73.84
26839;BME280;40088;51.214;6.786;2023-08-21T03:49:48;101911.94;;;21.12;73.49
26839;BME280;40088;51.214;6.786;2023-08-21T03:59:48;101910.00;;;21.13;73.62
26839;BME280;40088;51.214;6.786;2023-08-21T04:09:48;101907.25;;;21.13;73.80
26839;BME280;40088;51.214;6.786;2023-08-21T04:19:52;101911.94;;;21.12;73.79
26839;BME280;40088;51.214;6.786;2023-08-21T04:29:53;101918.53;;;21.11;73.69
26839;BME280;40088;51.214;6.786;2023-08-21T04:39:53;101913.00;;;21.11;73.34
26839;BME280;40088;51.214;6.786;2023-08-21T04:49:55;101920.25;;;21.12;73.40
26839;BME280;40088;51.214;6.786;2023-08-21T04:59:55;101926.63;;;21.13;73.60
26839;BME280;40088;51.214;6.786;2023-08-21T05:09:59;101928.56;;;21.12;73.30
26839;BME280;40088;51.214;6.786;2023-08-21T05:19:59;101928.56;;;21.12;73.45
26839;BME280;40088;51.214;6.786;2023-08-21T05:29:59;101933.25;;;21.12;73.42
26839;BME280;40088;51.214;6.786;2023-08-21T05:40:00;101933.25;;;21.12;73.12
26839;BME280;40088;51.214;6.786;2023-08-21T05:50:00;101940.50;;;21.13;73.38
26839;BME280;40088;51.214;6.786;2023-08-21T06:00:00;101948.81;;;21.13;73.56
26839;BME280;40088;51.214;6.786;2023-08-21T06:10:01;101957.13;;;21.13;73.68
26839;BME280;40088;51.214;6.786;2023-08-21T06:20:01;101959.03;;;21.12;73.67
26839;BME280;40088;51.214;6.786;2023-08-21T06:30:03;101962.66;;;21.13;73.50
26839;BME280;40088;51.214;6.786;2023-08-21T06:40:04;101962.66;;;21.13;73.55
26839;BME280;40088;51.214;6.786;2023-08-21T06:50:04;101965.44;;;21.13;73.62
26839;BME280;40088;51.214;6.786;2023-08-21T07:00:06;101974.63;;;21.13;73.74
26839;BME280;40088;51.214;6.786;2023-08-21T07:10:06;101985.69;;;21.13;73.84
26839;BME280;40088;51.214;6.786;2023-08-21T07:20:08;101990.38;;;21.13;73.60
26839;BME280;40088;51.214;6.786;2023-08-21T07:30:09;101992.31;;;21.12;73.81
26839;BME280;40088;51.214;6.786;2023-08-21T07:40:09;101994.22;;;21.12;73.71
26839;BME280;40088;51.214;6.786;2023-08-21T07:50:10;101995.94;;;21.13;73.65
26839;BME280;40088;51.214;6.786;2023-08-21T08:00:11;101993.16;;;21.13;73.86
26839;BME280;40088;51.214;6.786;2023-08-21T08:10:12;101988.47;;;21.13;73.84
26839;BME280;40088;51.214;6.786;2023-08-21T08:20:12;101991.25;;;21.13;73.69
26839;BME280;40088;51.214;6.786;2023-08-21T08:30:13;101984.00;;;21.12;74.08
26839;BME280;40088;51.214;6.786;2023-08-21T08:40:13;101988.47;;;21.13;73.97
26839;BME280;40088;51.214;6.786;2023-08-21T08:50:14;101992.09;;;21.14;73.96
26839;BME280;40088;51.214;6.786;2023-08-21T09:00:16;101989.31;;;21.14;73.89
26839;BME280;40088;51.214;6.786;2023-08-21T09:10:16;101999.56;;;21.13;73.84
26839;BME280;40088;51.214;6.786;2023-08-21T09:20:16;101994.88;;;21.14;74.17
26839;BME280;40088;51.214;6.786;2023-08-21T09:30:16;101992.09;;;21.14;73.69
26839;BME280;40088;51.214;6.786;2023-08-21T09:40:17;101977.38;;;21.13;74.12
26839;BME280;40088;51.214;6.786;2023-08-21T09:50:17;101979.13;;;21.14;73.84
26839;BME280;40088;51.214;6.786;2023-08-21T10:00:18;101981.91;;;21.14;73.75
26839;BME280;40088;51.214;6.786;2023-08-21T10:10:21;101963.34;;;21.15;74.11
26839;BME280;40088;51.214;6.786;2023-08-21T10:20:22;101962.50;;;21.14;73.70
26839;BME280;40088;51.214;6.786;2023-08-21T10:30:27;101950.34;;;21.15;73.74
26839;BME280;40088;51.214;6.786;2023-08-21T10:40:28;101952.28;;;21.15;73.84
26839;BME280;40088;51.214;6.786;2023-08-21T10:50:28;101958.66;;;21.15;73.69
26839;BME280;40088;51.214;6.786;2023-08-21T11:00:28;101969.75;;;21.15;73.81
26839;BME280;40088;51.214;6.786;2023-08-21T11:10:30;101975.31;;;21.15;73.74
26839;BME280;40088;51.214;6.786;2023-08-21T11:20:33;101975.31;;;21.15;73.78
26839;BME280;40088;51.214;6.786;2023-08-21T11:30:34;101972.53;;;21.15;73.91
26839;BME280;40088;51.214;6.786;2023-08-21T11:40:35;101974.25;;;21.16;74.19
26839;BME280;40088;51.214;6.786;2023-08-21T11:50:35;101976.16;;;21.16;73.90
26839;BME280;40088;51.214;6.786;2023-08-21T12:00:35;101971.47;;;21.16;73.81
26839;BME280;40088;51.214;6.786;2023-08-21T12:10:39;101964.00;;;21.17;73.72
26839;BME280;40088;51.214;6.786;2023-08-21T12:20:40;101962.09;;;21.17;73.58
26839;BME280;40088;51.214;6.786;2023-08-21T12:30:40;101962.09;;;21.17;74.03
26839;BME280;40088;51.214;6.786;2023-08-21T12:40:40;101948.22;;;21.17;73.94
26839;BME280;40088;51.214;6.786;2023-08-21T12:50:41;101944.41;;;21.18;73.97
26839;BME280;40088;51.214;6.786;2023-08-21T13:00:41;101949.09;;;21.18;73.72
26839;BME280;40088;51.214;6.786;2023-08-21T13:10:41;101944.41;;;21.18;73.61
26839;BME280;40088;51.214;6.786;2023-08-21T13:20:42;101949.09;;;21.18;73.93
26839;BME280;40088;51.214;6.786;2023-08-21T13:30:42;101942.47;;;21.19;73.63
26839;BME280;40088;51.214;6.786;2023-08-21T13:40:43;101940.59;;;21.19;73.62
26839;BME280;40088;51.214;6.786;2023-08-21T13:50:43;101928.63;;;21.19;73.75
26839;BME280;40088;51.214;6.786;2023-08-21T14:00:43;101925.69;;;21.20;73.79
26839;BME280;40088;51.214;6.786;2023-08-21T14:10:47;101917.38;;;21.20;73.62
26839;BME280;40088;51.214;6.786;2023-08-21T14:20:47;101903.50;;;21.20;73.99
26839;BME280;40088;51.214;6.786;2023-08-21T14:30:47;101902.44;;;21.21;74.14
26839;BME280;40088;51.214;6.786;2023-08-21T14:40:48;101900.53;;;21.22;73.55
26839;BME280;40088;51.214;6.786;2023-08-21T14:50:49;101891.34;;;21.21;73.85
26839;BME280;40088;51.214;6.786;2023-08-21T15:00:52;101891.34;;;21.21;73.62
26839;BME280;40088;51.214;6.786;2023-08-21T15:10:53;101886.66;;;21.22;73.93
26839;BME280;40088;51.214;6.786;2023-08-21T15:20:53;101871.94;;;21.21;73.83
26839;BME280;40088;51.214;6.786;2023-08-21T15:30:53;101869.81;;;21.23;73.89
26839;BME280;40088;51.214;6.786;2023-08-21T15:40:54;101852.34;;;21.23;73.59
26839;BME280;40088;51.214;6.786;2023-08-21T15:50:54;101858.72;;;21.23;73.59
26839;BME280;40088;51.214;6.786;2023-08-21T16:00:57;101846.78;;;21.23;73.68
26839;BME280;40088;51.214;6.786;2023-08-21T16:10:57;101860.47;;;21.24;74.04
26839;BME280;40088;51.214;6.786;2023-08-21T16:20:57;101849.38;;;21.24;73.85
26839;BME280;40088;51.214;6.786;2023-08-21T16:30:58;101838.31;;;21.24;73.62
26839;BME280;40088;51.214;6.786;2023-08-21T16:40:58;101826.31;;;21.24;73.63
26839;BME280;40088;51.214;6.786;2023-08-21T16:50:59;101824.44;;;21.24;73.80
26839;BME280;40088;51.214;6.786;2023-08-21T17:00:59;101810.56;;;21.24;73.72
26839;BME280;40088;51.214;6.786;2023-08-21T17:11:00;101805.03;;;21.24;73.73
26839;BME280;40088;51.214;6.786;2023-08-21T17:21:01;101803.97;;;21.25;73.83
26839;BME280;40088;51.214;6.786;2023-08-21T17:31:02;101806.75;;;21.25;73.81
26839;BME280;40088;51.214;6.786;2023-08-21T17:41:02;101812.28;;;21.25;73.54
26839;BME280;40088;51.214;6.786;2023-08-21T17:51:03;101817.84;;;21.25;73.66
26839;BME280;40088;51.214;6.786;2023-08-21T18:01:04;101819.53;;;21.26;73.64
26839;BME280;40088;51.214;6.786;2023-08-21T18:11:05;101809.31;;;21.27;73.38
26839;BME280;40088;51.214;6.786;2023-08-21T18:21:07;101801.19;;;21.25;73.69
26839;BME280;40088;51.214;6.786;2023-08-21T18:31:08;101802.91;;;21.26;73.25
26839;BME280;40088;51.214;6.786;2023-08-21T18:41:08;101815.91;;;21.26;73.34
26839;BME280;40088;51.214;6.786;2023-08-21T18:51:08;101810.38;;;21.26;73.59
26839;BME280;40088;51.214;6.786;2023-08-21T19:01:09;101822.31;;;21.26;73.40
26839;BME280;40088;51.214;6.786;2023-08-21T19:11:09;101832.53;;;21.26;73.45
26839;BME280;40088;51.214;6.786;2023-08-21T19:21:11;101830.63;;;21.26;73.44
26839;BME280;40088;51.214;6.786;2023-08-21T19:31:11;101837.88;;;21.27;73.48
26839;BME280;40088;51.214;6.786;2023-08-21T19:41:12;101837.88;;;21.27;73.36
26839;BME280;40088;51.214;6.786;2023-08-21T19:51:12;101843.44;;;21.27;73.10
26839;BME280;40088;51.214;6.786;2023-08-21T20:01:12;101832.34;;;21.27;73.41
26839;BME280;40088;51.214;6.786;2023-08-21T20:11:13;101847.06;;;21.28;73.14
26839;BME280;40088;51.214;6.786;2023-08-21T20:21:13;101846.19;;;21.27;73.39
26839;BME280;40088;51.214;6.786;2023-08-21T20:31:16;101849.81;;;21.28;73.34
26839;BME280;40088;51.214;6.786;2023-08-21T20:41:16;101848.97;;;21.27;73.47
26839;BME280;40088;51.214;6.786;2023-08-21T20:51:16;101840.66;;;21.27;73.33
26839;BME280;40088;51.214;6.786;2023-08-21T21:01:17;101844.28;;;21.28;73.48
26839;BME280;40088;51.214;6.786;2023-08-21T21:11:17;101836.81;;;21.28;73.04
26839;BME280;40088;51.214;6.786;2023-08-21T21:21:17;101841.50;;;21.28;73.47
26839;BME280;40088;51.214;6.786;2023-08-21T21:31:17;101834.03;;;21.28;73.12
26839;BME280;40088;51.214;6.786;2023-08-21T21:41:18;101836.81;;;21.28;73.23
26839;BME280;40088;51.214;6.786;2023-08-21T21:51:19;101828.50;;;21.28;73.53
26839;BME280;40088;51.214;6.786;2023-08-21T22:01:19;101818.28;;;21.29;73.21
26839;BME280;40088;51.214;6.786;2023-08-21T22:11:19;101803.56;;;21.28;72.89
26839;BME280;40088;51.214;6.786;2023-08-21T22:21:20;101796.09;;;21.29;73.07
26839;BME280;40088;51.214;6.786;2023-08-21T22:31:20;101801.63;;;21.29;73.39
26839;BME280;40088;51.214;6.786;2023-08-21T22:41:20;101794.38;;;21.28;72.88
26839;BME280;40088;51.214;6.786;2023-08-21T22:51:21;101790.53;;;21.29;73.28
26839;BME280;40088;51.214;6.786;2023-08-21T23:01:21;101800.78;;;21.28;73.00
26839;BME280;40088;51.214;6.786;2023-08-21T23:11:21;101792.47;;;21.28;73.12
26839;BME280;40088;51.214;6.786;2023-08-21T23:21:23;101790.53;;;21.29;73.35
26839;BME280;40088;51.214;6.786;2023-08-21T23:31:23;101785.84;;;21.29;73.41
26839;BME280;40088;51.214;6.786;2023-08-21T23:41:23;101784.16;;;21.28;73.12
26839;BME280;40088;51.214;6.786;2023-08-21T23:51:24;101779.47;;;21.29;73.15
